createdAt,value
2022-08-04T00:03:06.196Z,7.07
2022-08-04T00:06:16.018Z,6.93
2022-08-04T00:09:28.134Z,8.03
2022-08-04T00:12:37.846Z,5.57
2022-08-04T00:15:45.179Z,7.43
2022-08-04T00:18:56.402Z,9.70
2022-08-04T00:22:09.518Z,5.87
2022-08-04T00:25:12.564Z,8.73
2022-08-04T00:28:16.410Z,8.87
2022-08-04T00:31:21.206Z,7.27
2022-08-04T00:34:44.946Z,6.90
2022-08-04T00:37:48.394Z,6.77
2022-08-04T00:41:04.422Z,7.70
2022-08-04T00:44:27.474Z,7.07
2022-08-04T00:47:45.851Z,8.13
2022-08-04T00:51:00.949Z,7.37
2022-08-04T00:54:12.873Z,7.17
2022-08-04T00:57:33.848Z,8.97
2022-08-04T01:00:49.915Z,6.00
2022-08-04T01:04:03.340Z,5.67
2022-08-04T01:07:32.813Z,6.90
2022-08-04T01:10:47.817Z,3.87
2022-08-04T01:14:21.082Z,5.80
2022-08-04T01:17:40.219Z,5.67
2022-08-04T01:20:55.186Z,6.33
2022-08-04T01:24:29.809Z,7.53
2022-08-04T01:27:59.644Z,6.00
2022-08-04T01:31:12.874Z,4.97
2022-08-04T01:34:19.308Z,8.40
2022-08-04T01:37:33.084Z,5.93
2022-08-04T01:40:39.165Z,4.50
2022-08-04T01:43:44.009Z,5.83
2022-08-04T01:46:51.639Z,3.23
2022-08-04T01:49:57.090Z,5.73
2022-08-04T01:53:01.447Z,7.53
2022-08-04T01:56:06.179Z,6.30
2022-08-04T01:59:10.230Z,4.97
2022-08-04T02:02:15.031Z,7.10
2022-08-04T02:05:20.771Z,5.57
2022-08-04T02:08:34.430Z,5.10
2022-08-04T02:11:37.684Z,4.47
2022-08-04T02:14:50.879Z,6.00
2022-08-04T02:18:01.472Z,4.37
2022-08-04T02:21:06.466Z,6.70
2022-08-04T02:24:15.219Z,5.03
2022-08-04T02:27:26.052Z,7.73
2022-08-04T02:30:40.059Z,3.13
2022-08-04T02:33:46.765Z,7.57
2022-08-04T02:36:52.571Z,6.70
2022-08-04T02:39:59.232Z,2.53
2022-08-04T02:43:06.810Z,5.10
2022-08-04T02:46:17.827Z,8.07
2022-08-04T02:49:23.934Z,5.87
2022-08-04T02:52:27.339Z,4.30
2022-08-04T02:55:31.258Z,7.53
2022-08-04T02:58:36.309Z,4.20
2022-08-04T03:01:57.098Z,4.43
2022-08-04T03:05:14.660Z,7.53
2022-08-04T03:08:41.731Z,4.10
2022-08-04T03:12:22.703Z,3.83
2022-08-04T03:16:01.543Z,10.13
2022-08-04T03:19:53.379Z,5.57
2022-08-04T03:23:23.520Z,7.83
2022-08-04T03:26:55.928Z,6.20
2022-08-04T03:30:07.932Z,5.00
2022-08-04T03:33:46.079Z,5.33
2022-08-04T03:37:16.911Z,4.67
2022-08-04T03:40:59.472Z,4.30
2022-08-04T03:44:29.679Z,5.90
2022-08-04T03:48:14.412Z,6.27
2022-08-04T03:51:45.419Z,3.20
2022-08-04T03:55:13.922Z,5.23
2022-08-04T03:58:44.129Z,7.97
2022-08-04T04:02:15.556Z,5.93
2022-08-04T04:05:58.851Z,3.10
2022-08-04T04:09:56.742Z,3.13
2022-08-04T04:13:17.979Z,5.07
2022-08-04T04:16:47.678Z,4.20
2022-08-04T04:20:26.304Z,5.43
2022-08-04T04:23:38.551Z,4.03
2022-08-04T04:26:59.004Z,4.27
2022-08-04T04:30:06.949Z,5.00
2022-08-04T04:33:33.846Z,5.20
2022-08-04T04:36:45.190Z,9.37
2022-08-04T04:40:00.141Z,3.77
2022-08-04T04:43:50.461Z,4.53
2022-08-04T04:47:06.542Z,3.20
2022-08-04T04:50:15.772Z,6.63
2022-08-04T04:53:28.615Z,5.03
2022-08-04T04:56:40.869Z,6.60
2022-08-04T04:59:51.110Z,3.03
2022-08-04T05:03:23.026Z,5.43
2022-08-04T05:06:44.426Z,4.57
2022-08-04T05:10:00.830Z,4.67
2022-08-04T05:14:36.960Z,7.50
2022-08-04T05:16:55.418Z,5.80
2022-08-04T05:20:04.670Z,10.53
2022-08-04T05:23:14.603Z,3.30
2022-08-04T05:26:22.725Z,7.43
2022-08-04T05:29:31.930Z,6.07
2022-08-04T05:32:44.543Z,8.37
2022-08-04T05:36:18.619Z,5.97
2022-08-04T05:39:22.184Z,3.63
2022-08-04T05:42:26.492Z,4.43
2022-08-04T05:45:39.078Z,9.80
2022-08-04T05:48:43.469Z,9.43
2022-08-04T05:51:47.658Z,9.70
2022-08-04T05:54:53.039Z,8.23
2022-08-04T05:57:57.500Z,8.10
2022-08-04T06:01:01.811Z,8.17
2022-08-04T06:04:11.307Z,6.77
2022-08-04T06:07:15.258Z,6.90
2022-08-04T06:10:23.075Z,6.70
2022-08-04T06:13:45.495Z,9.37
2022-08-04T06:16:55.733Z,7.33
2022-08-04T06:20:19.305Z,8.03
2022-08-04T06:23:30.854Z,8.67
2022-08-04T06:26:37.741Z,5.80
2022-08-04T06:29:51.256Z,8.43
2022-08-04T06:33:04.013Z,12.57
2022-08-04T06:36:08.712Z,9.77
2022-08-04T06:39:12.480Z,6.87
2022-08-04T06:42:22.714Z,6.47
2022-08-04T06:45:27.509Z,10.47
2022-08-04T06:48:33.548Z,8.27
2022-08-04T06:51:48.983Z,7.50
2022-08-04T06:54:53.611Z,7.57
2022-08-04T06:58:02.815Z,7.67
2022-08-04T07:01:07.208Z,4.63
2022-08-04T07:04:11.773Z,5.97
2022-08-04T07:07:16.008Z,7.63
2022-08-04T07:10:22.258Z,5.80
2022-08-04T07:13:28.492Z,7.23
2022-08-04T07:16:32.947Z,8.90
2022-08-04T07:19:37.231Z,5.60
2022-08-04T07:22:43.174Z,8.00
2022-08-04T07:25:59.422Z,7.60
2022-08-04T07:29:07.465Z,7.73
2022-08-04T07:32:13.634Z,7.60
2022-08-04T07:36:03.829Z,7.83
2022-08-04T07:38:48.365Z,5.83
2022-08-04T07:41:55.234Z,5.57
2022-08-04T07:44:59.860Z,8.03
2022-08-04T07:48:05.220Z,6.17
2022-08-04T07:51:09.749Z,4.67
2022-08-04T07:54:14.034Z,3.70
2022-08-04T07:57:19.714Z,7.30
2022-08-04T08:00:46.550Z,6.73
2022-08-04T08:03:50.635Z,10.10
2022-08-04T08:06:53.799Z,6.87
2022-08-04T08:09:56.953Z,5.93
2022-08-04T08:13:00.220Z,4.83
2022-08-04T08:16:05.708Z,6.80
2022-08-04T08:19:09.262Z,7.33
2022-08-04T08:22:12.745Z,5.30
2022-08-04T08:25:16.010Z,14.87
2022-08-04T08:28:19.158Z,4.43
2022-08-04T08:31:56.503Z,10.77
2022-08-04T08:34:47.578Z,7.30
2022-08-04T08:37:57.249Z,7.77
2022-08-04T08:41:22.136Z,5.93
2022-08-04T08:44:49.625Z,3.90
2022-08-04T08:48:19.970Z,5.40
2022-08-04T08:51:47.647Z,5.80
2022-08-04T08:55:25.930Z,6.90
2022-08-04T08:58:47.655Z,4.40
2022-08-04T09:02:03.830Z,4.90
2022-08-04T09:05:21.663Z,5.23
2022-08-04T09:08:41.806Z,3.33
2022-08-04T09:11:51.026Z,2.97
2022-08-04T09:14:59.980Z,4.53
2022-08-04T09:18:08.298Z,3.93
2022-08-04T09:21:24.065Z,5.65
2022-08-04T09:24:37.650Z,3.40
2022-08-04T09:27:48.436Z,4.63
2022-08-04T09:30:58.858Z,3.97
2022-08-04T09:34:09.901Z,5.35
2022-08-04T09:37:25.904Z,3.90
2022-08-04T09:40:53.159Z,3.22
2022-08-04T09:44:52.373Z,3.20
2022-08-04T09:47:40.706Z,3.13
2022-08-04T09:50:49.966Z,2.63
2022-08-04T09:54:03.983Z,2.35
2022-08-04T09:57:15.333Z,4.88
2022-08-04T10:00:20.704Z,3.88
2022-08-04T10:03:46.929Z,2.75
2022-08-04T10:07:05.509Z,2.45
2022-08-04T10:10:28.464Z,4.32
2022-08-04T10:13:44.759Z,2.83
2022-08-04T10:16:54.422Z,4.45
2022-08-04T10:20:05.297Z,5.18
2022-08-04T10:23:16.743Z,6.05
2022-08-04T10:26:29.554Z,3.97
2022-08-04T10:29:39.461Z,3.47
2022-08-04T10:32:46.738Z,2.50
2022-08-04T10:35:54.885Z,6.78
2022-08-04T10:39:02.965Z,5.22
2022-08-04T10:42:18.320Z,4.93
2022-08-04T10:45:27.891Z,4.15
2022-08-04T10:48:40.400Z,5.78
2022-08-04T10:51:57.343Z,4.85
2022-08-04T10:55:08.598Z,5.15
2022-08-04T10:58:19.739Z,2.33
2022-08-04T11:01:50.982Z,2.90
2022-08-04T11:04:57.736Z,3.83
2022-08-04T11:08:07.678Z,3.45
2022-08-04T11:11:21.118Z,2.60
2022-08-04T11:14:32.371Z,3.33
2022-08-04T11:17:38.999Z,3.22
2022-08-04T11:20:47.860Z,4.45
2022-08-04T11:24:02.172Z,2.53
2022-08-04T11:27:10.159Z,4.32
2022-08-04T11:30:17.719Z,1.90
2022-08-04T11:33:28.319Z,2.60
2022-08-04T11:36:37.460Z,1.92
2022-08-04T11:39:46.849Z,2.78
2022-08-04T11:42:56.258Z,2.00
2022-08-04T11:46:07.857Z,5.53
2022-08-04T11:49:16.298Z,3.25
2022-08-04T11:52:21.822Z,2.17
2022-08-04T11:55:28.089Z,3.65
2022-08-04T11:58:32.399Z,2.95
2022-08-04T12:01:49.783Z,2.13
2022-08-04T12:04:58.302Z,2.40
2022-08-04T12:08:17.053Z,1.70
2022-08-04T12:11:33.287Z,1.73
2022-08-04T12:14:47.867Z,3.60
2022-08-04T12:18:02.593Z,3.17
2022-08-04T12:21:10.019Z,2.22
2022-08-04T12:24:24.647Z,1.88
2022-08-04T12:27:33.942Z,1.88
2022-08-04T12:31:00.601Z,4.15
2022-08-04T12:34:13.367Z,3.58
2022-08-04T12:37:24.370Z,1.98
2022-08-04T12:40:32.463Z,2.92
2022-08-04T12:43:39.913Z,1.95
2022-08-04T12:46:47.194Z,1.80
2022-08-04T12:50:00.862Z,1.90
2022-08-04T12:53:19.258Z,2.90
2022-08-04T12:56:35.732Z,1.75
2022-08-04T12:59:42.255Z,2.03
2022-08-04T13:02:47.078Z,2.45
2022-08-04T13:05:55.379Z,3.17
2022-08-04T13:09:05.800Z,5.15
2022-08-04T13:12:15.446Z,2.45
2022-08-04T13:15:21.863Z,4.70
2022-08-04T13:18:30.128Z,2.75
2022-08-04T13:21:50.202Z,1.98
2022-08-04T13:26:40.535Z,3.65
2022-08-04T13:28:29.139Z,2.33
2022-08-04T13:31:35.905Z,1.80
2022-08-04T13:34:48.850Z,2.88
2022-08-04T13:37:55.402Z,3.55
2022-08-04T13:41:00.963Z,6.50
2022-08-04T13:44:19.156Z,3.20
2022-08-04T13:47:28.558Z,1.70
2022-08-04T13:50:33.338Z,3.85
2022-08-04T13:53:39.876Z,2.70
2022-08-04T13:56:49.163Z,2.38
2022-08-04T13:59:55.645Z,5.57
2022-08-04T14:03:03.228Z,2.28
2022-08-04T14:06:10.367Z,1.90
2022-08-04T14:09:18.174Z,2.83
2022-08-04T14:12:39.039Z,2.15
2022-08-04T14:15:54.730Z,2.65
2022-08-04T14:19:06.201Z,2.50
2022-08-04T14:22:15.152Z,3.28
2022-08-04T14:25:19.657Z,1.58
2022-08-04T14:29:01.192Z,2.20
2022-08-04T14:32:00.851Z,1.73
2022-08-04T14:35:11.971Z,4.60
2022-08-04T14:38:15.277Z,2.17
2022-08-04T14:41:21.637Z,2.22
2022-08-04T14:44:24.823Z,4.13
2022-08-04T14:47:41.535Z,3.47
2022-08-04T14:50:55.574Z,4.93
2022-08-04T14:53:58.633Z,3.72
2022-08-04T14:57:08.702Z,5.85
2022-08-04T15:00:17.169Z,5.50
2022-08-04T15:03:22.918Z,5.88
2022-08-04T15:06:28.288Z,6.22
2022-08-04T15:09:32.096Z,11.82
2022-08-04T15:12:37.379Z,6.45
2022-08-04T15:15:40.940Z,8.15
2022-08-04T15:18:43.997Z,11.25
2022-08-04T15:21:54.507Z,7.65
2022-08-04T15:24:57.606Z,6.40
2022-08-04T15:28:03.408Z,7.22
2022-08-04T15:31:10.556Z,9.38
2022-08-04T15:34:46.144Z,9.27
2022-08-04T15:37:59.645Z,8.70
2022-08-04T15:41:09.024Z,5.65
2022-08-04T15:44:29.410Z,8.18
2022-08-04T15:47:32.976Z,10.45
2022-08-04T15:50:37.013Z,6.77
2022-08-04T15:54:28.061Z,10.27
2022-08-04T15:58:00.746Z,7.33
2022-08-04T16:01:18.191Z,8.33
2022-08-04T16:04:23.732Z,8.63
2022-08-04T16:07:54.262Z,8.67
2022-08-04T16:10:57.346Z,6.97
2022-08-04T16:14:10.164Z,6.80
2022-08-04T16:17:19.413Z,11.30
2022-08-04T16:20:24.391Z,10.97
2022-08-04T16:24:02.312Z,5.53
2022-08-04T16:27:10.467Z,10.57
2022-08-04T16:30:15.790Z,8.33
2022-08-04T16:33:27.393Z,9.87
2022-08-04T16:36:56.904Z,8.37
2022-08-04T16:40:30.036Z,9.27
2022-08-04T16:43:36.627Z,8.13
2022-08-04T16:47:08.428Z,9.43
2022-08-04T16:50:08.135Z,7.40
2022-08-04T16:53:39.963Z,7.53
2022-08-04T16:56:36.181Z,9.43
2022-08-04T16:59:39.458Z,6.47
2022-08-04T17:02:43.603Z,9.57
2022-08-04T17:05:48.211Z,5.50
2022-08-04T17:08:51.463Z,4.87
2022-08-04T17:11:55.580Z,5.90
2022-08-04T17:14:58.829Z,7.87
2022-08-04T17:18:19.174Z,6.97
2022-08-04T17:21:25.589Z,7.43
2022-08-04T17:24:28.731Z,6.30
2022-08-04T17:28:09.789Z,4.23
2022-08-04T17:30:56.467Z,4.77
2022-08-04T17:34:01.333Z,5.97
2022-08-04T17:37:39.998Z,5.57
2022-08-04T17:40:29.078Z,7.00
2022-08-04T17:44:04.923Z,8.77
2022-08-04T17:47:22.769Z,13.33
2022-08-04T17:50:30.096Z,8.83
2022-08-04T17:54:01.804Z,5.90
2022-08-04T17:56:59.603Z,6.67
2022-08-04T18:00:02.630Z,4.60
2022-08-04T18:03:05.684Z,6.83
2022-08-04T18:06:15.179Z,8.00
2022-08-04T18:12:47.820Z,6.87
2022-08-04T18:15:51.338Z,4.47
2022-08-04T18:19:10.237Z,5.00
2022-08-04T18:22:27.998Z,8.23
2022-08-04T18:25:51.506Z,7.67
2022-08-04T18:28:55.282Z,7.10
2022-08-04T18:31:58.336Z,6.90
2022-08-04T18:35:05.370Z,4.93
2022-08-04T18:38:22.188Z,5.47
2022-08-04T18:41:27.620Z,3.77
2022-08-04T18:44:31.226Z,6.13
2022-08-04T18:47:58.479Z,4.60
2022-08-04T18:54:23.439Z,5.23
2022-08-04T18:57:59.417Z,5.40
2022-08-04T19:00:54.183Z,4.23
2022-08-04T19:03:57.824Z,4.37
2022-08-04T19:07:23.474Z,4.60
2022-08-04T19:10:26.709Z,3.80
2022-08-04T19:13:34.903Z,5.57
2022-08-04T19:16:38.385Z,4.37
2022-08-04T19:19:49.469Z,4.80
2022-08-04T19:24:28.584Z,4.83
2022-08-04T19:26:27.946Z,3.20
2022-08-04T19:29:37.329Z,7.20
2022-08-04T19:32:41.905Z,3.17
2022-08-04T19:35:51.400Z,4.50
2022-08-04T19:38:54.689Z,2.93
2022-08-04T19:42:04.410Z,5.77
2022-08-04T19:45:40.144Z,3.97
2022-08-04T19:48:45.205Z,6.17
2022-08-04T19:52:03.544Z,6.07
2022-08-04T19:55:10.377Z,6.13
2022-08-04T19:58:14.082Z,5.17
2022-08-04T20:01:32.785Z,4.03
2022-08-04T20:04:41.156Z,4.13
2022-08-04T20:07:45.459Z,3.63
2022-08-04T20:10:52.000Z,4.43
2022-08-04T20:13:55.546Z,5.17
2022-08-04T20:16:59.935Z,6.60
2022-08-04T20:20:03.146Z,4.07
2022-08-04T20:23:11.487Z,3.43
2022-08-04T20:26:14.951Z,4.60
2022-08-04T20:29:39.107Z,3.10
2022-08-04T20:32:43.093Z,4.70
2022-08-04T20:36:05.180Z,6.53
2022-08-04T20:39:09.673Z,3.40
2022-08-04T20:42:12.958Z,5.10
2022-08-04T20:45:16.920Z,4.87
2022-08-04T20:48:21.311Z,4.43
2022-08-04T20:51:31.580Z,5.80
2022-08-04T20:54:39.301Z,5.03
2022-08-04T20:57:49.623Z,7.93
2022-08-04T21:00:54.849Z,6.27
2022-08-04T21:04:27.867Z,7.87
2022-08-04T21:07:31.840Z,8.27
2022-08-04T21:10:39.816Z,9.13
2022-08-04T21:17:16.953Z,9.67
2022-08-04T21:20:28.086Z,8.30
2022-08-04T21:23:33.947Z,9.37
2022-08-04T21:26:37.545Z,10.83
2022-08-04T21:29:40.674Z,12.00
2022-08-04T21:32:44.260Z,10.20
2022-08-04T21:35:54.262Z,12.80
2022-08-04T21:38:57.761Z,12.50
2022-08-04T21:45:23.826Z,12.47
2022-08-04T21:48:39.166Z,11.57
2022-08-04T21:51:57.725Z,13.87
2022-08-04T21:55:02.738Z,12.57
2022-08-04T21:58:06.810Z,12.13
2022-08-04T22:04:35.553Z,15.10
2022-08-04T22:07:50.812Z,13.67
2022-08-04T22:10:54.798Z,12.70
2022-08-04T22:14:10.907Z,15.57
2022-08-04T22:17:18.197Z,13.60
2022-08-04T22:20:27.433Z,15.50
2022-08-04T22:23:45.108Z,14.60
2022-08-04T22:26:49.235Z,14.20
2022-08-04T22:29:53.975Z,17.97
2022-08-04T22:32:57.017Z,14.17
2022-08-04T22:36:00.023Z,12.43
2022-08-04T22:39:07.653Z,15.23
2022-08-04T22:42:13.379Z,14.23
2022-08-04T22:45:16.581Z,14.60
2022-08-04T22:48:19.695Z,15.87
2022-08-04T22:51:23.769Z,14.63
2022-08-04T22:54:29.687Z,15.80
2022-08-04T22:57:43.537Z,16.67
2022-08-04T23:00:58.133Z,16.07
2022-08-04T23:04:01.464Z,19.77
2022-08-04T23:07:09.473Z,18.13
2022-08-04T23:10:14.196Z,14.87
2022-08-04T23:13:24.510Z,15.57
2022-08-04T23:16:28.084Z,11.63
2022-08-04T23:19:31.982Z,15.63
2022-08-04T23:22:41.719Z,12.57
2022-08-04T23:26:07.807Z,17.20
2022-08-04T23:29:10.279Z,11.63
2022-08-04T23:32:13.277Z,12.20
2022-08-04T23:35:16.458Z,11.30
2022-08-04T23:38:30.531Z,12.50
2022-08-04T23:41:54.729Z,13.00
2022-08-04T23:45:00.244Z,14.20
2022-08-04T23:48:18.792Z,12.83
2022-08-04T23:51:22.752Z,14.83
2022-08-04T23:54:26.053Z,9.37
2022-08-04T23:58:05.280Z,9.90
